Time;durP1;ratioP1;P1;durP2;ratioP2;P2;SDS_P1;SDS_P2;PMS_P1;PMS_P2;Temp;Humidity;BMP_temperature;BMP_pressure;BME280_temperature;BME280_humidity;BME280_pressure;Samples;Min_cycle;Max_cycle;Signal;HPM_P1;HPM_P2
2021/06/03 00:00:39;;;;;;;24.42;16.25;;;;;;;15.53;74.75;100650.13;4973316;28;20497;-48
2021/06/03 00:03:08;;;;;;;24.77;14.20;;;;;;;15.54;74.30;100646.94;4971006;28;20062;-46
2021/06/03 00:05:50;;;;;;;20.55;14.75;;;;;;;15.51;74.99;100647.72;4965583;28;20409;-47
2021/06/03 00:08:19;;;;;;;20.73;13.88;;;;;;;15.52;74.64;100649.31;4961295;28;20556;-45
2021/06/03 00:11:01;;;;;;;20.75;14.13;;;;;;;15.49;74.77;100644.50;4970625;28;20137;-45
2021/06/03 00:13:31;;;;;;;24.77;14.30;;;;;;;15.52;74.72;100638.16;4963820;28;20561;-43
2021/06/03 00:16:00;;;;;;;21.58;13.98;;;;;;;15.48;74.91;100653.25;4960450;28;20133;-48
2021/06/03 00:18:27;;;;;;;24.63;14.82;;;;;;;15.50;74.93;100656.47;4965890;28;20047;-48
2021/06/03 00:20:55;;;;;;;22.25;13.38;;;;;;;15.53;74.89;100650.13;4962757;28;20047;-46
2021/06/03 00:23:22;;;;;;;25.75;14.75;;;;;;;15.54;75.14;100646.16;4959277;28;20055;-48
2021/06/03 00:25:49;;;;;;;17.98;13.98;;;;;;;15.53;75.08;100647.34;4966673;28;20043;-45
2021/06/03 00:28:17;;;;;;;20.98;13.82;;;;;;;15.56;75.17;100643.78;4964239;28;20047;-48
2021/06/03 00:30:46;;;;;;;19.40;13.82;;;;;;;15.63;75.11;100643.84;4958382;28;20050;-46
2021/06/03 00:33:14;;;;;;;20.30;13.77;;;;;;;15.69;75.07;100642.34;4966920;28;20404;-50
2021/06/03 00:35:42;;;;;;;19.63;13.48;;;;;;;15.74;74.90;100636.41;4964244;28;20078;-50
2021/06/03 00:38:09;;;;;;;24.08;14.77;;;;;;;15.76;74.82;100636.81;4960181;28;20070;-44
2021/06/03 00:40:37;;;;;;;24.33;13.57;;;;;;;15.73;75.08;100641.19;4968789;28;20081;-45
2021/06/03 00:43:05;;;;;;;20.25;13.65;;;;;;;15.73;74.76;100632.81;4964854;28;20089;-43
2021/06/03 00:45:37;;;;;;;19.10;12.45;;;;;;;15.74;75.09;100639.19;4963473;28;20126;-46
2021/06/03 00:48:04;;;;;;;;;;;;;;;15.72;76.01;100638.78;4959085;28;20070;-48
2021/06/03 00:50:35;;;;;;;29.52;13.75;;;;;;;15.68;75.06;100640.72;4966018;28;19926;-46
2021/06/03 00:53:05;;;;;;;22.75;13.43;;;;;;;15.61;75.19;100644.25;4955955;28;20134;-46
2021/06/03 00:55:35;;;;;;;23.85;14.85;;;;;;;15.58;75.47;100645.00;4964730;28;20105;-46
2021/06/03 00:58:03;;;;;;;24.73;14.45;;;;;;;15.60;75.25;100633.47;4970452;28;20423;-47
2021/06/03 01:00:30;;;;;;;19.67;13.77;;;;;;;15.59;75.48;100638.25;4960697;28;20052;-45
2021/06/03 01:02:57;;;;;;;20.17;13.23;;;;;;;15.60;75.47;100636.25;4966569;28;20081;-45
2021/06/03 01:05:27;;;;;;;22.20;13.40;;;;;;;15.52;75.81;100631.75;4972430;28;20137;-47
2021/06/03 01:07:57;;;;;;;20.65;12.20;;;;;;;15.49;75.88;100638.13;4959254;28;20051;-45
2021/06/03 01:10:30;;;;;;;20.13;13.93;;;;;;;15.45;76.31;100626.88;4971536;28;20518;-44
2021/06/03 01:13:16;;;;;;;21.25;13.00;;;;;;;15.45;75.91;100631.66;4969772;28;20097;-48
2021/06/03 01:15:47;;;;;;;21.15;15.00;;;;;;;15.42;76.13;100624.84;4944229;28;20047;-46
2021/06/03 01:18:15;;;;;;;19.95;13.05;;;;;;;15.45;76.19;100620.50;4960336;28;20078;-47
2021/06/03 01:20:48;;;;;;;19.40;13.23;;;;;;;15.46;76.61;100627.72;4972306;28;20440;-46
2021/06/03 01:23:28;;;;;;;25.60;13.95;;;;;;;15.47;76.98;100629.31;4962246;28;20208;-46
2021/06/03 01:25:56;;;;;;;19.98;12.55;;;;;;;15.48;76.53;100625.34;4942358;28;20055;-43
2021/06/03 01:28:24;;;;;;;18.13;12.70;;;;;;;15.53;76.41;100622.22;4961581;28;20532;-48
2021/06/03 01:30:55;;;;;;;25.58;13.38;;;;;;;15.55;76.52;100623.44;4941960;28;20042;-45
2021/06/03 01:33:26;;;;;;;18.25;12.40;;;;;;;15.57;76.60;100626.66;4951441;29;20043;-46
2021/06/03 01:35:58;;;;;;;20.40;13.65;;;;;;;15.58;76.48;100621.88;4965349;28;20134;-44
2021/06/03 01:38:30;;;;;;;20.23;11.90;;;;;;;15.62;76.51;100628.31;4962306;28;20102;-47
2021/06/03 01:40:58;;;;;;;17.42;11.93;;;;;;;15.60;76.27;100628.69;4971456;28;20149;-47
2021/06/03 01:43:30;;;;;;;24.35;13.20;;;;;;;15.61;76.45;100635.06;4963218;28;20059;-48
2021/06/03 01:45:59;;;;;;;21.30;13.35;;;;;;;15.61;76.61;100641.47;4971921;28;20043;-46
2021/06/03 01:48:26;;;;;;;19.63;12.90;;;;;;;15.61;76.40;100638.66;4961081;28;20047;-49
2021/06/03 01:50:57;;;;;;;20.75;13.57;;;;;;;15.61;76.47;100647.03;4961119;28;20385;-46
2021/06/03 01:53:26;;;;;;;18.38;12.70;;;;;;;15.62;76.45;100639.47;4962777;28;20550;-47
2021/06/03 01:55:55;;;;;;;21.80;13.32;;;;;;;15.60;76.49;100647.41;4971886;28;20126;-45
2021/06/03 01:58:22;;;;;;;18.23;12.30;;;;;;;15.58;76.64;100645.00;4955896;28;20477;-48
2021/06/03 02:00:49;;;;;;;19.42;13.18;;;;;;;15.59;76.87;100651.41;4955663;28;20131;-48
2021/06/03 02:03:16;;;;;;;20.27;12.35;;;;;;;15.55;77.08;100661.69;4954617;28;20500;-46
2021/06/03 02:05:43;;;;;;;20.13;13.52;;;;;;;15.54;77.25;100658.09;4965606;28;20089;-46
2021/06/03 02:08:10;;;;;;;18.67;12.73;;;;;;;15.53;77.24;100656.50;4948617;28;20138;-48
2021/06/03 02:10:37;;;;;;;20.20;12.55;;;;;;;15.54;77.48;100652.53;4959601;28;20137;-47
2021/06/03 02:13:15;;;;;;;19.10;12.50;;;;;;;15.55;77.55;100648.56;4955175;28;20138;-46
2021/06/03 02:16:13;;;;;;;22.98;12.57;;;;;;;15.58;78.18;100658.16;4959646;28;20134;-48
2021/06/03 02:18:49;;;;;;;20.90;11.82;;;;;;;15.54;77.71;100663.69;4952988;28;20051;-46
2021/06/03 02:21:18;;;;;;;21.88;15.52;;;;;;;15.54;77.54;100657.31;4961416;28;20074;-45
2021/06/03 02:23:47;;;;;;;21.42;11.95;;;;;;;15.53;77.51;100667.69;4962447;28;20456;-47
2021/06/03 02:26:15;;;;;;;22.90;11.48;;;;;;;15.53;77.63;100655.72;4964246;28;20043;-45
2021/06/03 02:28:43;;;;;;;20.85;12.70;;;;;;;15.54;77.54;100655.31;4971331;28;20074;-48
2021/06/03 02:31:11;;;;;;;19.83;11.90;;;;;;;15.54;77.49;100663.69;4953532;28;20043;-45
2021/06/03 02:33:39;;;;;;;16.88;10.82;;;;;;;15.54;77.57;100658.09;4970573;28;20094;-46
2021/06/03 02:36:06;;;;;;;18.80;12.02;;;;;;;15.53;77.31;100667.69;4969797;28;20142;-43
2021/06/03 02:38:36;;;;;;;18.17;11.98;;;;;;;15.57;77.44;100667.69;4968940;28;20456;-44
2021/06/03 02:41:06;;;;;;;21.70;12.38;;;;;;;15.53;77.72;100672.44;4961384;28;20047;-45
2021/06/03 02:43:34;;;;;;;20.65;11.52;;;;;;;15.51;77.74;100663.66;4959840;28;20100;-44
2021/06/03 02:46:01;;;;;;;20.33;11.45;;;;;;;15.49;77.67;100666.81;4962359;28;20117;-46
2021/06/03 02:48:28;;;;;;;16.30;11.05;;;;;;;15.47;78.08;100674.78;4963572;28;20748;-44
2021/06/03 02:50:58;;;;;;;21.45;11.82;;;;;;;15.43;78.11;100671.13;4963491;28;20492;-45
2021/06/03 02:53:25;;;;;;;17.27;11.25;;;;;;;15.42;78.04;100668.69;4967517;28;20141;-45
2021/06/03 02:55:51;;;;;;;19.42;11.45;;;;;;;15.43;78.22;100673.09;4959619;28;20130;-44
2021/06/03 02:58:19;;;;;;;20.77;12.18;;;;;;;15.42;78.39;100672.28;4972975;28;20050;-47
2021/06/03 03:00:46;;;;;;;18.65;10.85;;;;;;;15.40;78.34;100671.06;4963522;28;20047;-45
2021/06/03 03:03:13;;;;;;;15.73;10.75;;;;;;;15.41;78.30;100675.47;4958251;28;20055;-45
2021/06/03 03:05:42;;;;;;;17.67;11.05;;;;;;;15.39;78.40;100673.03;4961129;28;20071;-49
2021/06/03 03:08:09;;;;;;;17.63;10.75;;;;;;;15.40;78.40;100673.84;4969565;28;20134;-44
2021/06/03 03:10:48;;;;;;;17.55;9.68;;;;;;;15.43;78.72;100681.47;4967363;28;20138;-44
2021/06/03 03:13:17;;;;;;;17.65;10.07;;;;;;;15.44;78.39;100680.25;4953223;28;20130;-46
2021/06/03 03:15:45;;;;;;;12.10;9.27;;;;;;;15.47;78.31;100682.31;4954880;28;20586;-47
2021/06/03 03:18:14;;;;;;;19.20;9.20;;;;;;;15.47;78.38;100679.53;4955460;28;20098;-51
2021/06/03 03:20:42;;;;;;;15.07;9.98;;;;;;;15.47;78.37;100669.19;4972896;28;20047;-46
2021/06/03 03:23:10;;;;;;;17.00;8.32;;;;;;;15.48;78.29;100681.16;4949459;29;20070;-48
2021/06/03 03:25:41;;;;;;;12.90;8.38;;;;;;;15.49;78.38;100682.78;4969399;28;20082;-44
2021/06/03 03:28:08;;;;;;;13.48;9.48;;;;;;;15.49;78.42;100688.34;4974282;28;20165;-47
2021/06/03 03:30:41;;;;;;;18.38;10.57;;;;;;;15.45;78.59;100679.91;4971191;28;20130;-50
2021/06/03 03:33:12;;;;;;;16.48;10.05;;;;;;;15.40;78.66;100680.25;4970446;28;20069;-45
2021/06/03 03:35:41;;;;;;;15.90;9.93;;;;;;;15.34;78.82;100678.16;4960079;28;20047;-47
2021/06/03 03:38:09;;;;;;;23.27;11.70;;;;;;;15.27;78.74;100676.88;4963934;28;20047;-44
2021/06/03 03:40:35;;;;;;;19.58;11.27;;;;;;;15.22;79.09;100677.19;4952145;28;20122;-46
2021/06/03 03:43:03;;;;;;;16.67;11.52;;;;;;;15.17;78.97;100680.31;4951460;28;20042;-45
2021/06/03 03:45:32;;;;;;;22.10;13.25;;;;;;;15.11;79.22;100679.06;4960834;28;20078;-44
2021/06/03 03:48:00;;;;;;;23.25;13.23;;;;;;;15.05;79.52;100683.34;4973552;28;20074;-48
2021/06/03 03:50:31;;;;;;;;;;;;;;;14.97;80.34;100700.34;4961450;28;20110;-49
2021/06/03 03:52:58;;;;;;;36.40;16.45;;;;;;;14.94;79.49;100699.13;4960337;28;20028;-45
2021/06/03 03:55:25;;;;;;;29.15;17.02;;;;;;;14.90;79.51;100701.06;4972391;28;20078;-45
2021/06/03 03:57:52;;;;;;;33.25;17.40;;;;;;;14.86;80.08;100711.34;4971556;28;20435;-44
2021/06/03 04:00:25;;;;;;;41.33;21.08;;;;;;;14.78;80.31;100709.63;4969629;28;20043;-47
2021/06/03 04:02:52;;;;;;;40.50;22.52;;;;;;;14.70;80.22;100707.88;4955572;28;20087;-47
2021/06/03 04:05:21;;;;;;;47.65;25.15;;;;;;;14.67;80.35;100703.06;4954362;28;20099;-48
2021/06/03 04:07:48;;;;;;;49.22;22.83;;;;;;;14.62;80.41;100700.59;4961971;28;20039;-45
2021/06/03 04:10:21;;;;;;;60.70;24.20;;;;;;;14.61;80.83;100710.16;4941174;28;20043;-46
2021/06/03 04:12:49;;;;;;;53.50;23.83;;;;;;;14.60;80.52;100714.09;4962643;28;20142;-45
2021/06/03 04:15:19;;;;;;;45.20;22.05;;;;;;;14.56;80.75;100721.63;4967719;28;20055;-43
2021/06/03 04:17:46;;;;;;;50.10;21.50;;;;;;;14.56;80.74;100719.59;4953790;28;20082;-48
2021/06/03 04:20:19;;;;;;;51.20;23.75;;;;;;;14.56;81.05;100721.63;4965328;28;20094;-46
2021/06/03 04:22:47;;;;;;;37.90;19.33;;;;;;;14.56;80.66;100719.59;4968912;28;20125;-46
2021/06/03 04:25:17;;;;;;;39.75;19.38;;;;;;;14.60;81.00;100728.03;4965999;28;20137;-50
2021/06/03 04:27:44;;;;;;;33.22;16.45;;;;;;;14.60;81.12;100736.41;4973156;28;20046;-48
2021/06/03 04:30:14;;;;;;;40.83;18.63;;;;;;;14.61;81.22;100726.88;4958333;28;20125;-44
2021/06/03 04:32:41;;;;;;;43.33;18.00;;;;;;;14.64;80.98;100721.34;4960191;28;20454;-46
2021/06/03 04:35:09;;;;;;;33.75;16.85;;;;;;;14.68;81.09;100718.63;4960907;28;20130;-48
2021/06/03 04:37:36;;;;;;;29.25;17.85;;;;;;;14.73;80.89;100709.94;4969371;28;20066;-46
2021/06/03 04:40:04;;;;;;;26.17;14.98;;;;;;;14.78;80.79;100706.81;4966426;28;20039;-47
2021/06/03 04:42:32;;;;;;;27.63;15.48;;;;;;;14.79;80.69;100700.09;4966049;28;20516;-49
2021/06/03 04:44:58;;;;;;;24.77;14.52;;;;;;;14.79;80.66;100704.84;4965813;28;20162;-45
2021/06/03 04:47:28;;;;;;;30.33;16.27;;;;;;;14.82;80.98;100704.91;4956262;28;20129;-46
2021/06/03 04:49:55;;;;;;;27.58;15.25;;;;;;;14.84;80.82;100704.53;4967835;28;20396;-45
2021/06/03 04:52:25;;;;;;;28.88;15.60;;;;;;;14.89;80.66;100710.59;4962283;28;20097;-44
2021/06/03 04:55:14;;;;;;;26.38;15.00;;;;;;;14.87;81.03;100707.38;4957202;28;20090;-46
2021/06/03 04:57:42;;;;;;;26.48;15.13;;;;;;;14.87;80.81;100723.28;4966127;28;20070;-48
2021/06/03 05:00:23;;;;;;;22.40;13.30;;;;;;;14.87;80.93;100731.66;4958928;28;20075;-45
2021/06/03 05:02:50;;;;;;;20.50;12.20;;;;;;;14.91;80.66;100727.75;4953709;28;20126;-45
2021/06/03 05:05:17;;;;;;;18.88;10.95;;;;;;;14.91;80.46;100718.56;4968126;28;20555;-44
2021/06/03 05:07:46;;;;;;;17.35;10.93;;;;;;;14.92;80.65;100726.56;4947652;28;20065;-45
2021/06/03 05:10:15;;;;;;;19.73;11.45;;;;;;;14.88;80.78;100731.28;4960000;28;20141;-46
2021/06/03 05:12:42;;;;;;;13.00;9.32;;;;;;;14.88;80.49;100739.63;4963810;28;20142;-47
2021/06/03 05:15:10;;;;;;;16.80;9.93;;;;;;;14.84;80.65;100747.16;4965392;28;20085;-49
2021/06/03 05:17:38;;;;;;;14.85;9.65;;;;;;;14.81;80.46;100745.09;4961796;28;20145;-50
2021/06/03 05:20:08;;;;;;;15.15;9.32;;;;;;;14.80;80.66;100751.06;4959451;28;20829;-44
2021/06/03 05:22:36;;;;;;;17.65;11.57;;;;;;;14.79;80.54;100749.44;4970621;28;20150;-48
2021/06/03 05:25:09;;;;;;;14.90;10.20;;;;;;;14.76;80.54;100744.63;4953776;28;20063;-44
2021/06/03 05:27:37;;;;;;;15.02;8.68;;;;;;;14.70;80.67;100749.69;4971188;28;20064;-49
2021/06/03 05:30:07;;;;;;;10.40;7.60;;;;;;;14.70;80.42;100755.25;4959370;28;20035;-47
2021/06/03 05:32:34;;;;;;;15.32;8.52;;;;;;;14.70;80.52;100760.84;4944343;28;20051;-48
2021/06/03 05:35:03;;;;;;;11.27;7.97;;;;;;;14.72;80.35;100755.69;4952690;28;20150;-47
2021/06/03 05:37:30;;;;;;;13.27;8.73;;;;;;;14.73;80.18;100756.50;4942863;28;20050;-49
2021/06/03 05:39:58;;;;;;;11.35;7.82;;;;;;;14.74;80.16;100758.13;4970126;28;20058;-44
2021/06/03 05:42:26;;;;;;;13.55;7.53;;;;;;;14.73;80.05;100765.66;4972066;28;20046;-53
2021/06/03 05:44:53;;;;;;;14.90;9.60;;;;;;;14.75;79.64;100763.31;4968400;28;20130;-46
2021/06/03 05:47:19;;;;;;;18.17;9.23;;;;;;;14.72;79.72;100766.84;4967561;28;20081;-46
2021/06/03 05:49:47;;;;;;;15.98;10.10;;;;;;;14.70;80.00;100768.38;4965925;28;20133;-46
2021/06/03 05:52:14;;;;;;;15.57;9.02;;;;;;;14.70;79.90;100766.41;4966267;28;20560;-46
2021/06/03 05:54:40;;;;;;;20.42;10.25;;;;;;;14.71;79.88;100765.25;4954791;28;20097;-45
2021/06/03 05:57:08;;;;;;;16.83;8.70;;;;;;;14.72;79.81;100764.06;4967021;28;20062;-46
2021/06/03 05:59:34;;;;;;;16.75;9.00;;;;;;;14.72;79.72;100761.25;4962421;28;20142;-48
2021/06/03 06:02:06;;;;;;;18.20;9.50;;;;;;;14.75;79.65;100770.84;4975549;28;20138;-48
2021/06/03 06:07:19;;;;;;;12.35;7.57;;;;;;;14.84;79.48;100777.00;4955847;28;20098;-49
2021/06/03 06:09:46;;;;;;;11.48;8.30;;;;;;;14.92;79.41;100785.13;4959232;28;20075;-47
2021/06/03 06:12:13;;;;;;;10.60;6.50;;;;;;;14.95;79.34;100777.97;4975617;28;20065;-50
2021/06/03 06:14:40;;;;;;;9.05;6.93;;;;;;;14.99;79.07;100781.63;4958452;28;20039;-49
2021/06/03 06:17:08;;;;;;;13.00;6.72;;;;;;;15.05;78.86;100788.50;4961057;28;20101;-44
2021/06/03 06:19:38;;;;;;;12.50;6.85;;;;;;;15.13;78.65;100785.44;4964514;28;20047;-46
2021/06/03 06:22:05;;;;;;;9.85;7.25;;;;;;;15.21;78.42;100784.38;4973238;28;20089;-44
2021/06/03 06:24:32;;;;;;;11.32;5.50;;;;;;;15.27;78.11;100777.28;4966171;28;20035;-44
2021/06/03 06:27:01;;;;;;;10.50;6.85;;;;;;;15.33;78.01;100785.34;4958606;28;20047;-44
2021/06/03 06:29:28;;;;;;;13.15;5.85;;;;;;;15.37;77.65;100789.78;4958204;28;20393;-45
2021/06/03 06:31:54;;;;;;;15.40;6.90;;;;;;;15.44;77.13;100803.03;4970096;28;20525;-47
2021/06/03 06:34:21;;;;;;;8.95;5.32;;;;;;;15.51;77.10;100797.59;4958727;28;20142;-49
2021/06/03 06:36:48;;;;;;;8.07;4.97;;;;;;;15.61;76.69;100808.09;4938944;29;20051;-45
2021/06/03 06:39:17;;;;;;;6.30;4.30;;;;;;;15.76;76.33;100809.88;4963773;28;20050;-45
2021/06/03 06:41:45;;;;;;;8.30;4.88;;;;;;;15.93;75.86;100798.16;4956401;28;20070;-49
2021/06/03 06:44:14;;;;;;;8.32;4.65;;;;;;;16.04;75.21;100796.31;4962640;28;20142;-45
2021/06/03 06:46:41;;;;;;;4.97;3.63;;;;;;;16.09;74.73;100795.97;4973318;28;20075;-46
2021/06/03 06:49:08;;;;;;;8.07;4.45;;;;;;;16.17;74.32;100802.44;4963979;28;20087;-44
2021/06/03 06:51:34;;;;;;;5.82;3.92;;;;;;;16.32;74.31;100810.59;4949234;28;20404;-48
2021/06/03 06:54:01;;;;;;;6.20;4.05;;;;;;;16.49;73.81;100808.38;4963265;28;20855;-45
2021/06/03 06:56:29;;;;;;;8.00;4.05;;;;;;;16.61;73.35;100810.91;4972460;28;20049;-48
2021/06/03 06:58:57;;;;;;;5.10;3.65;;;;;;;16.70;72.65;100811.41;4971630;28;20047;-45
2021/06/03 07:01:24;;;;;;;5.72;3.95;;;;;;;16.77;72.29;100806.69;4974173;28;20047;-46
2021/06/03 07:03:51;;;;;;;6.50;3.80;;;;;;;16.87;71.71;100810.75;4971165;28;20584;-45
2021/06/03 07:06:19;;;;;;;7.75;4.30;;;;;;;16.93;71.39;100806.44;4963540;28;20082;-51
2021/06/03 07:08:46;;;;;;;6.38;4.53;;;;;;;17.00;70.71;100806.47;4963784;28;20496;-46
2021/06/03 07:11:13;;;;;;;6.07;4.25;;;;;;;17.14;70.46;100812.19;4959729;28;20059;-45
2021/06/03 07:13:40;;;;;;;7.40;4.30;;;;;;;17.27;70.05;100813.50;4964675;28;20460;-46
2021/06/03 07:16:06;;;;;;;7.10;4.25;;;;;;;17.37;69.66;100815.56;4964750;28;20086;-47
2021/06/03 07:18:34;;;;;;;14.50;4.18;;;;;;;17.48;69.27;100816.44;4958899;28;20054;-47
2021/06/03 07:21:01;;;;;;;6.30;4.50;;;;;;;17.59;69.07;100814.53;4969127;28;20059;-49
2021/06/03 07:23:28;;;;;;;5.47;4.13;;;;;;;17.69;68.60;100820.56;4970231;28;20081;-47
2021/06/03 07:25:56;;;;;;;6.45;4.15;;;;;;;17.68;68.14;100819.78;4958270;28;20050;-47
2021/06/03 07:28:23;;;;;;;7.85;3.90;;;;;;;17.67;67.76;100822.97;4957950;28;20098;-45
2021/06/03 07:30:51;;;;;;;4.32;3.42;;;;;;;17.70;67.92;100825.00;4967178;28;20044;-44
2021/06/03 07:33:17;;;;;;;6.82;3.67;;;;;;;17.75;68.40;100827.41;4966569;28;20107;-51
2021/06/03 07:35:49;;;;;;;4.82;3.30;;;;;;;17.84;68.89;100833.47;4972271;28;20109;-45
2021/06/03 07:38:16;;;;;;;6.50;3.25;;;;;;;17.97;68.84;100841.16;4955379;28;20564;-49
2021/06/03 07:40:43;;;;;;;5.10;3.10;;;;;;;18.21;68.75;100848.06;4966628;28;20133;-45
2021/06/03 07:43:12;;;;;;;3.67;2.72;;;;;;;18.48;67.69;100838.16;4971254;28;20073;-48
2021/06/03 07:45:42;;;;;;;3.58;3.03;;;;;;;18.78;67.53;100844.25;4951007;28;20489;-50
2021/06/03 07:48:09;;;;;;;4.32;3.08;;;;;;;19.14;66.62;100845.06;4959903;28;20153;-50
2021/06/03 07:50:37;;;;;;;10.15;4.00;;;;;;;19.64;65.93;100856.31;4957282;28;20054;-47
2021/06/03 07:53:05;;;;;;;6.70;3.28;;;;;;;20.10;63.41;100850.53;4963916;28;20082;-46
2021/06/03 07:55:33;;;;;;;8.05;3.50;;;;;;;20.58;61.37;100848.75;4953875;28;20131;-47
2021/06/03 07:58:07;;;;;;;5.38;2.80;;;;;;;21.08;59.88;100855.66;4969811;28;20058;-45
2021/06/03 08:00:35;;;;;;;7.97;3.33;;;;;;;21.51;58.88;100861.75;4966072;28;20515;-46
2021/06/03 08:03:04;;;;;;;7.35;3.50;;;;;;;21.93;57.00;100857.72;4956794;28;20055;-45
2021/06/03 08:05:31;;;;;;;7.05;3.53;;;;;;;22.27;56.01;100864.16;4949967;28;20724;-45
2021/06/03 08:07:59;;;;;;;8.60;3.58;;;;;;;22.49;55.18;100861.84;4951370;28;20031;-46
2021/06/03 08:10:35;;;;;;;9.13;3.80;;;;;;;22.91;54.03;100857.66;4950416;28;20059;-48
2021/06/03 08:13:03;;;;;;;10.93;3.65;;;;;;;23.27;53.81;100861.50;4952456;28;20043;-48
2021/06/03 08:15:37;;;;;;;7.25;4.28;;;;;;;23.70;53.33;100866.44;4951835;28;20055;-46
2021/06/03 08:18:04;;;;;;;9.48;4.05;;;;;;;23.98;52.26;100874.41;4952336;28;20157;-46
2021/06/03 08:20:38;;;;;;;8.88;3.53;;;;;;;24.14;51.21;100866.03;4951612;28;20063;-46
2021/06/03 08:23:07;;;;;;;6.95;3.50;;;;;;;23.97;50.22;100872.78;4951502;28;20090;-46
2021/06/03 08:25:34;;;;;;;3.30;2.67;;;;;;;;;;4951504;28;20054;-53
2021/06/03 08:28:01;;;;;;;5.88;2.95;;;;;;;23.92;48.79;100873.28;4951797;29;20388;-49
2021/06/03 08:30:28;;;;;;;8.63;2.88;;;;;;;23.97;48.06;100873.59;4951665;28;20051;-45
2021/06/03 08:32:56;;;;;;;5.10;2.50;;;;;;;24.08;47.97;100873.38;4951584;29;20074;-49
2021/06/03 08:35:24;;;;;;;8.75;2.80;;;;;;;24.19;47.35;100868.34;4951855;29;20047;-45
2021/06/03 08:37:56;;;;;;;6.00;3.00;;;;;;;24.34;47.15;100875.31;4951938;28;20119;-44
2021/06/03 08:40:28;;;;;;;5.80;2.80;;;;;;;24.40;46.65;100884.88;4951697;29;20047;-49
2021/06/03 08:43:05;;;;;;;3.08;2.42;;;;;;;24.44;46.16;100876.28;4951632;29;20094;-50
2021/06/03 08:45:34;;;;;;;7.28;2.55;;;;;;;24.65;46.00;100885.13;4946065;28;20134;-48
2021/06/03 08:48:01;;;;;;;5.63;2.67;;;;;;;24.81;45.80;100881.56;4952133;28;20441;-46
2021/06/03 08:50:33;;;;;;;8.20;2.90;;;;;;;25.03;45.79;100879.03;4952296;28;20043;-46
2021/06/03 08:53:04;;;;;;;6.53;2.20;;;;;;;25.17;45.41;100881.53;4947788;29;20066;-47
2021/06/03 08:58:20;;;;;;;6.93;3.03;;;;;;;25.25;44.95;100880.94;4955109;28;20064;-48
2021/06/03 09:00:47;;;;;;;4.80;2.30;;;;;;;25.24;44.87;100882.16;4951129;28;20058;-44
2021/06/03 09:03:16;;;;;;;8.52;2.90;;;;;;;25.17;44.16;100878.72;4964981;28;20057;-49
2021/06/03 09:05:46;;;;;;;6.20;2.47;;;;;;;25.08;44.07;100878.50;4952255;28;20051;-45
2021/06/03 09:08:19;;;;;;;3.58;1.77;;;;;;;25.08;43.13;100870.03;4950251;28;20047;-49
2021/06/03 09:10:49;;;;;;;4.15;1.92;;;;;;;25.07;42.29;100876.94;4959821;28;20134;-47
2021/06/03 09:13:20;;;;;;;3.80;2.03;;;;;;;24.81;41.93;100865.38;4948754;28;20151;-47
2021/06/03 09:15:51;;;;;;;3.58;1.95;;;;;;;24.94;42.53;100873.22;4953248;28;20707;-49
2021/06/03 09:18:31;;;;;;;4.55;2.38;;;;;;;25.05;42.55;100873.72;4961507;28;20552;-47
2021/06/03 09:21:15;;;;;;;4.25;1.98;;;;;;;25.17;42.82;100882.34;4953406;28;20068;-46
2021/06/03 09:23:55;;;;;;;5.53;2.53;;;;;;;25.08;42.95;100889.84;4958996;28;20090;-46
2021/06/03 09:26:25;;;;;;;11.45;3.17;;;;;;;24.98;43.67;100893.75;4936070;28;20046;-48
2021/06/03 09:28:54;;;;;;;6.68;2.10;;;;;;;25.10;43.46;100893.06;4960122;28;20043;-46
2021/06/03 09:31:29;;;;;;;4.38;2.08;;;;;;;25.40;43.16;100898.38;4958048;28;20109;-48
2021/06/03 09:34:16;;;;;;;5.78;1.95;;;;;;;25.57;41.74;100888.66;4955787;28;20579;-48
2021/06/03 09:36:49;;;;;;;5.28;1.98;;;;;;;25.51;41.53;100895.31;4952480;28;20071;-47
2021/06/03 09:39:29;;;;;;;2.58;1.70;;;;;;;25.39;41.37;100894.75;4968960;28;20059;-47
2021/06/03 09:42:20;;;;;;;3.03;1.75;;;;;;;25.47;39.99;100903.88;4968535;28;20051;-50
2021/06/03 09:44:53;;;;;;;7.43;2.20;;;;;;;25.50;40.39;100900.16;4965199;28;20184;-47
2021/06/03 09:47:35;;;;;;;6.78;2.30;;;;;;;25.42;40.51;100904.41;4957083;28;20046;-46
2021/06/03 09:50:10;;;;;;;3.10;1.58;;;;;;;25.21;40.57;100910.59;4963754;28;20070;-47
2021/06/03 09:52:37;;;;;;;5.50;1.60;;;;;;;24.91;40.87;100902.41;4961306;28;20077;-48
2021/06/03 09:55:05;;;;;;;3.70;2.05;;;;;;;25.07;40.87;100916.59;4974737;28;20465;-47
2021/06/03 09:57:38;;;;;;;3.13;1.65;;;;;;;24.67;40.83;100904.53;4949488;28;20051;-47
2021/06/03 10:00:10;;;;;;;4.72;1.77;;;;;;;24.06;41.88;100915.47;4974562;28;20051;-48
2021/06/03 10:02:40;;;;;;;5.07;1.70;;;;;;;23.63;42.75;100915.44;4974771;28;20054;-45
2021/06/03 10:05:15;;;;;;;6.70;1.73;;;;;;;23.70;43.13;100920.16;4968554;28;20078;-50
2021/06/03 10:07:59;;;;;;;4.20;1.70;;;;;;;23.95;43.32;100914.84;4965996;28;20137;-48
2021/06/03 10:10:32;;;;;;;5.75;1.92;;;;;;;23.92;42.94;100915.72;4975140;28;20039;-48
2021/06/03 10:13:07;;;;;;;5.25;1.70;;;;;;;23.40;43.12;100927.53;4974470;28;20154;-51
2021/06/03 10:15:39;;;;;;;6.72;1.58;;;;;;;23.11;44.05;100923.53;4969287;28;20852;-46
2021/06/03 10:18:08;;;;;;;4.55;1.30;;;;;;;23.46;43.75;100922.97;4974264;28;20050;-46
2021/06/03 10:20:38;;;;;;;4.32;1.58;;;;;;;23.91;43.27;100916.94;4928459;28;20058;-45
2021/06/03 10:23:09;;;;;;;2.92;1.35;;;;;;;23.81;43.34;100920.75;4952666;28;20166;-45
2021/06/03 10:25:42;;;;;;;5.43;1.77;;;;;;;23.78;43.43;100924.44;4944616;28;20050;-47
2021/06/03 10:28:14;;;;;;;3.53;1.90;;;;;;;23.96;43.29;100916.47;4961778;28;20047;-46
2021/06/03 10:30:48;;;;;;;2.72;1.20;;;;;;;24.10;42.66;100927.53;4956316;28;20050;-45
2021/06/03 10:33:24;;;;;;;5.22;1.42;;;;;;;23.92;43.04;100921.38;4937405;29;20109;-49
2021/06/03 10:36:00;;;;;;;4.38;1.13;;;;;;;23.90;43.17;100918.19;4953615;28;20374;-45
2021/06/03 10:38:27;;;;;;;2.10;1.20;;;;;;;24.04;42.82;100929.25;4954903;28;20043;-45
2021/06/03 10:40:57;;;;;;;4.68;1.10;;;;;;;24.04;43.04;100920.75;4953372;28;20098;-47
2021/06/03 10:43:33;;;;;;;3.40;1.50;;;;;;;24.02;43.34;100923.19;4953536;29;20591;-46
2021/06/03 10:46:00;;;;;;;4.80;1.40;;;;;;;23.99;43.19;100927.69;4952160;28;20489;-48
2021/06/03 10:48:30;;;;;;;4.40;0.98;;;;;;;23.91;43.09;100931.06;4953451;28;20102;-44
2021/06/03 10:50:57;;;;;;;1.05;0.68;;;;;;;23.80;42.58;100919.97;4956635;28;20061;-46
2021/06/03 10:53:28;;;;;;;3.03;0.85;;;;;;;23.83;41.63;100929.63;4953745;29;20051;-46
2021/06/03 10:56:08;;;;;;;1.75;0.90;;;;;;;23.85;40.58;100921.50;4953205;28;20058;-46
2021/06/03 10:58:38;;;;;;;11.13;1.05;;;;;;;23.78;41.55;100922.41;4940462;28;20498;-46
2021/06/03 11:01:14;;;;;;;2.58;0.77;;;;;;;23.67;41.72;100926.69;4952265;29;20417;-49
2021/06/03 11:03:49;;;;;;;1.87;0.90;;;;;;;23.68;41.57;100928.25;4953540;28;20054;-49
2021/06/03 11:06:21;;;;;;;4.25;1.67;;;;;;;23.53;42.22;100925.69;4950258;28;20457;-48
2021/06/03 11:08:55;;;;;;;3.03;0.75;;;;;;;23.48;42.33;100920.50;4946820;28;20551;-48
2021/06/03 11:11:23;;;;;;;5.63;0.80;;;;;;;23.38;42.53;100929.97;4947273;28;20044;-46
2021/06/03 11:13:50;;;;;;;2.95;0.80;;;;;;;23.12;42.84;100924.28;4951525;29;20051;-45
2021/06/03 11:16:21;;;;;;;1.38;0.60;;;;;;;23.01;43.10;100936.56;4952322;28;20095;-45
2021/06/03 11:18:48;;;;;;;1.73;0.70;;;;;;;22.79;42.86;100940.13;4953480;28;20039;-50
2021/06/03 11:21:33;;;;;;;1.02;0.55;;;;;;;22.79;42.91;100940.13;4949315;28;20050;-44
2021/06/03 11:24:08;;;;;;;3.60;0.63;;;;;;;22.71;42.49;100939.41;4950050;28;20044;-47
2021/06/03 11:26:56;;;;;;;1.60;1.23;;;;;;;22.39;42.81;100934.13;4951071;28;20046;-44
2021/06/03 11:29:27;;;;;;;2.30;0.70;;;;;;;22.23;43.56;100945.19;4947416;28;20102;-48
2021/06/03 11:32:06;;;;;;;2.27;1.47;;;;;;;22.28;44.03;100938.28;4953081;28;20191;-47
2021/06/03 11:34:43;;;;;;;2.28;0.80;;;;;;;22.52;44.41;100930.75;4952836;28;20170;-47
2021/06/03 11:37:18;;;;;;;2.58;0.60;;;;;;;22.74;44.28;100940.59;4954683;28;20382;-45